createdAt,value
2018-08-16T00:02:21.049Z,3.83
2018-08-16T00:04:49.711Z,3.87
2018-08-16T00:07:18.331Z,4.70
2018-08-16T00:09:47.022Z,3.97
2018-08-16T00:12:15.795Z,4.20
2018-08-16T00:14:44.343Z,3.60
2018-08-16T00:17:12.886Z,3.80
2018-08-16T00:19:41.831Z,4.50
2018-08-16T00:22:10.345Z,3.87
2018-08-16T00:24:38.955Z,4.30
2018-08-16T00:27:07.459Z,4.00
2018-08-16T00:29:36.931Z,4.20
2018-08-16T00:32:05.525Z,4.47
2018-08-16T00:34:34.036Z,5.07
2018-08-16T00:37:02.526Z,4.40
2018-08-16T00:39:30.989Z,4.47
2018-08-16T00:41:59.566Z,4.07
2018-08-16T00:44:28.102Z,3.90
2018-08-16T00:46:57.305Z,3.73
2018-08-16T00:49:25.908Z,4.07
2018-08-16T00:51:54.368Z,3.77
2018-08-16T00:54:22.852Z,4.77
2018-08-16T00:56:51.381Z,4.40
2018-08-16T00:59:20.163Z,4.60
2018-08-16T01:01:49.099Z,4.07
2018-08-16T01:04:17.603Z,3.30
2018-08-16T01:06:46.209Z,4.90
2018-08-16T01:09:14.944Z,4.23
2018-08-16T01:11:43.711Z,3.40
2018-08-16T01:14:12.484Z,4.63
2018-08-16T01:16:41.075Z,4.80
2018-08-16T01:19:09.642Z,3.77
2018-08-16T01:21:38.313Z,4.00
2018-08-16T01:24:06.876Z,3.93
2018-08-16T01:26:35.456Z,3.73
2018-08-16T01:29:04.154Z,3.53
2018-08-16T01:31:32.770Z,4.23
2018-08-16T01:34:01.517Z,3.73
2018-08-16T01:36:30.176Z,3.40
2018-08-16T01:38:58.715Z,4.20
2018-08-16T01:41:27.390Z,3.80
2018-08-16T01:43:55.908Z,3.90
2018-08-16T01:46:24.571Z,4.20
2018-08-16T01:48:53.074Z,3.80
2018-08-16T01:51:21.600Z,3.80
2018-08-16T01:53:50.100Z,4.00
2018-08-16T01:56:18.656Z,3.90
2018-08-16T01:58:47.309Z,3.80
2018-08-16T02:01:15.923Z,5.17
2018-08-16T02:03:44.583Z,4.40
2018-08-16T02:06:13.338Z,4.43
2018-08-16T02:08:42.124Z,5.00
2018-08-16T02:11:10.705Z,4.67
2018-08-16T02:13:39.215Z,4.43
2018-08-16T02:16:07.918Z,3.87
2018-08-16T02:18:36.440Z,3.90
2018-08-16T02:21:04.970Z,3.73
2018-08-16T02:23:33.660Z,4.10
2018-08-16T02:26:02.367Z,4.33
2018-08-16T02:28:30.906Z,2.90
2018-08-16T02:30:59.583Z,4.00
2018-08-16T02:33:28.190Z,4.20
2018-08-16T02:35:56.888Z,3.67
2018-08-16T02:38:25.466Z,3.73
2018-08-16T02:40:53.955Z,4.13
2018-08-16T02:43:22.552Z,4.67
2018-08-16T02:45:51.067Z,5.00
2018-08-16T02:48:19.579Z,4.10
2018-08-16T02:50:48.282Z,3.93
2018-08-16T02:53:16.898Z,4.33
2018-08-16T02:55:45.572Z,3.30
2018-08-16T02:58:14.023Z,5.27
2018-08-16T03:00:42.532Z,4.60
2018-08-16T03:03:11.236Z,4.60
2018-08-16T03:05:39.785Z,4.30
2018-08-16T03:08:08.358Z,4.70
2018-08-16T03:10:36.876Z,4.30
2018-08-16T03:13:05.675Z,4.80
2018-08-16T03:15:34.206Z,3.97
2018-08-16T03:18:02.691Z,4.50
2018-08-16T03:20:31.183Z,3.70
2018-08-16T03:22:59.723Z,4.40
2018-08-16T03:25:28.379Z,3.73
2018-08-16T03:27:56.927Z,5.10
2018-08-16T03:30:25.460Z,4.40
2018-08-16T03:32:54.186Z,4.30
2018-08-16T03:35:22.800Z,4.27
2018-08-16T03:37:51.304Z,3.80
2018-08-16T03:40:19.843Z,3.97
2018-08-16T03:42:48.329Z,3.50
2018-08-16T03:45:16.797Z,4.57
2018-08-16T03:47:45.879Z,3.60
2018-08-16T03:50:14.559Z,4.07
2018-08-16T03:52:43.280Z,5.67
2018-08-16T03:55:11.778Z,4.90
2018-08-16T03:57:40.326Z,4.57
2018-08-16T04:00:09.090Z,4.00
2018-08-16T04:02:38.170Z,3.50
2018-08-16T04:05:07.687Z,4.50
2018-08-16T04:07:36.446Z,4.47
2018-08-16T04:10:05.509Z,4.10
2018-08-16T04:12:34.002Z,4.20
2018-08-16T04:15:02.487Z,4.57
2018-08-16T04:17:35.307Z,4.33
2018-08-16T04:20:04.721Z,3.37
2018-08-16T04:22:33.422Z,3.80
2018-08-16T04:25:02.122Z,4.80
2018-08-16T04:27:30.910Z,4.23
2018-08-16T04:29:59.492Z,4.37
2018-08-16T04:32:28.775Z,4.70
2018-08-16T04:34:57.246Z,4.87
2018-08-16T04:37:25.765Z,4.17
2018-08-16T04:39:54.382Z,4.50
2018-08-16T04:42:23.006Z,4.13
2018-08-16T04:44:51.814Z,4.20
2018-08-16T04:47:20.335Z,4.50
2018-08-16T04:49:48.988Z,3.90
2018-08-16T04:52:17.428Z,5.30
2018-08-16T04:54:45.894Z,4.30
2018-08-16T04:57:14.501Z,5.07
2018-08-16T04:59:43.056Z,5.03
2018-08-16T05:02:12.097Z,3.93
2018-08-16T05:04:40.622Z,4.17
2018-08-16T05:07:09.264Z,4.23
2018-08-16T05:09:37.855Z,4.23
2018-08-16T05:12:06.447Z,5.47
2018-08-16T05:14:35.025Z,3.87
2018-08-16T05:17:04.538Z,4.57
2018-08-16T05:19:33.069Z,4.47
2018-08-16T05:22:01.811Z,3.90
2018-08-16T05:24:30.587Z,5.27
2018-08-16T05:26:59.219Z,4.67
2018-08-16T05:29:27.943Z,4.07
2018-08-16T05:31:56.576Z,4.43
2018-08-16T05:34:25.141Z,4.17
2018-08-16T05:36:53.641Z,4.90
2018-08-16T05:39:22.369Z,5.27
2018-08-16T05:41:50.943Z,6.20
2018-08-16T05:44:19.478Z,4.43
2018-08-16T05:46:47.975Z,4.70
2018-08-16T05:49:16.532Z,4.80
2018-08-16T05:51:44.996Z,5.03
2018-08-16T05:54:13.867Z,4.50
2018-08-16T05:56:42.377Z,4.27
2018-08-16T05:59:10.925Z,4.90
2018-08-16T06:01:39.710Z,5.67
2018-08-16T06:04:08.325Z,6.23
2018-08-16T06:06:36.991Z,4.73
2018-08-16T06:09:08.633Z,4.47
2018-08-16T06:11:37.186Z,4.30
2018-08-16T06:14:06.975Z,4.97
2018-08-16T06:16:35.580Z,5.70
2018-08-16T06:19:04.166Z,4.70
2018-08-16T06:21:32.777Z,5.00
2018-08-16T06:24:01.485Z,5.80
2018-08-16T06:26:30.954Z,5.90
2018-08-16T06:29:06.049Z,4.50
2018-08-16T06:31:34.670Z,5.57
2018-08-16T06:34:03.170Z,4.90
2018-08-16T06:36:31.831Z,6.10
2018-08-16T06:39:00.400Z,5.80
2018-08-16T06:41:28.983Z,4.43
2018-08-16T06:43:57.652Z,7.33
2018-08-16T06:46:26.263Z,5.30
2018-08-16T06:48:55.023Z,4.73
2018-08-16T06:51:24.492Z,4.60
2018-08-16T06:53:53.079Z,4.77
2018-08-16T06:56:21.617Z,4.20
2018-08-16T06:58:50.341Z,5.17
2018-08-16T07:01:19.010Z,4.83
2018-08-16T07:03:47.818Z,4.90
2018-08-16T07:06:16.481Z,4.27
2018-08-16T07:08:45.106Z,5.00
2018-08-16T07:11:13.908Z,4.00
2018-08-16T07:13:42.582Z,4.20
2018-08-16T07:16:11.161Z,3.67
2018-08-16T07:18:40.035Z,4.20
2018-08-16T07:21:08.616Z,4.03
2018-08-16T07:23:37.336Z,4.20
2018-08-16T07:26:06.303Z,4.10
2018-08-16T07:28:34.897Z,3.60
2018-08-16T07:31:03.429Z,4.43
2018-08-16T07:33:32.073Z,4.93
2018-08-16T07:36:01.310Z,5.10
2018-08-16T07:38:30.234Z,3.90
2018-08-16T07:40:58.755Z,3.50
2018-08-16T07:43:27.315Z,4.30
2018-08-16T07:45:56.091Z,3.80
2018-08-16T07:48:24.648Z,3.13
2018-08-16T07:50:53.259Z,3.97
2018-08-16T07:53:21.762Z,3.60
2018-08-16T07:55:50.303Z,3.27
2018-08-16T07:58:18.844Z,3.70
2018-08-16T08:00:47.347Z,3.27
2018-08-16T08:03:16.939Z,2.97
2018-08-16T08:05:45.552Z,3.00
2018-08-16T08:08:14.111Z,3.87
2018-08-16T08:10:42.735Z,3.23
2018-08-16T08:13:11.386Z,3.40
2018-08-16T08:15:39.937Z,4.20
2018-08-16T08:18:08.515Z,3.80
2018-08-16T08:20:37.253Z,3.27
2018-08-16T08:23:05.899Z,3.27
2018-08-16T08:25:34.502Z,3.50
2018-08-16T08:28:02.968Z,3.27
2018-08-16T08:30:31.749Z,3.00
2018-08-16T08:33:00.337Z,3.67
2018-08-16T08:35:28.825Z,2.60
2018-08-16T08:38:11.205Z,2.73
2018-08-16T08:40:41.015Z,3.10
2018-08-16T08:43:09.817Z,2.63
2018-08-16T08:45:38.309Z,2.97
2018-08-16T08:48:07.097Z,2.57
2018-08-16T08:50:35.889Z,2.80
2018-08-16T08:53:15.686Z,3.00
2018-08-16T08:55:55.342Z,2.70
2018-08-16T08:58:39.004Z,2.73
2018-08-16T09:01:07.551Z,2.50
2018-08-16T09:03:36.324Z,2.93
2018-08-16T09:06:05.539Z,2.73
2018-08-16T09:08:34.221Z,2.47
2018-08-16T09:11:19.328Z,2.57
2018-08-16T09:14:01.492Z,2.90
2018-08-16T09:16:32.593Z,2.40
2018-08-16T09:19:01.704Z,2.60
2018-08-16T09:21:30.882Z,2.70
2018-08-16T09:23:59.462Z,2.57
2018-08-16T09:26:33.758Z,2.50
2018-08-16T09:29:02.970Z,2.70
2018-08-16T09:31:42.874Z,4.03
2018-08-16T09:34:18.094Z,2.23
2018-08-16T09:36:46.778Z,2.60
2018-08-16T09:39:15.413Z,2.20
2018-08-16T09:41:44.423Z,2.73
2018-08-16T09:44:13.813Z,2.87
2018-08-16T09:47:09.187Z,2.50
2018-08-16T09:49:41.077Z,2.33
2018-08-16T09:52:10.654Z,2.33
2018-08-16T09:54:39.231Z,2.37
2018-08-16T09:57:09.076Z,2.90
2018-08-16T09:59:37.595Z,2.67
2018-08-16T10:02:07.577Z,2.67
2018-08-16T10:04:36.108Z,3.13
2018-08-16T10:07:04.662Z,2.63
2018-08-16T10:09:33.211Z,2.60
2018-08-16T10:12:02.629Z,2.10
2018-08-16T10:14:31.553Z,2.60
2018-08-16T10:17:00.317Z,2.70
2018-08-16T10:19:29.805Z,2.73
2018-08-16T10:21:58.424Z,2.57
2018-08-16T10:24:26.943Z,2.17
2018-08-16T10:26:55.549Z,2.43
2018-08-16T10:29:24.075Z,1.90
2018-08-16T10:31:52.628Z,2.10
2018-08-16T10:34:21.167Z,2.50
2018-08-16T10:36:49.824Z,2.20
2018-08-16T10:39:19.194Z,3.00
2018-08-16T10:41:47.741Z,3.17
2018-08-16T10:44:16.337Z,2.73
2018-08-16T10:46:44.826Z,2.23
2018-08-16T10:49:14.881Z,2.40
2018-08-16T10:51:43.415Z,2.60
2018-08-16T10:54:11.959Z,2.57
2018-08-16T10:56:40.500Z,3.33
2018-08-16T10:59:09.015Z,2.37
2018-08-16T11:01:37.759Z,2.80
2018-08-16T11:04:07.101Z,2.17
2018-08-16T11:06:35.661Z,2.17
2018-08-16T11:09:07.689Z,2.10
2018-08-16T11:11:37.554Z,2.43
2018-08-16T11:14:06.090Z,2.27
2018-08-16T11:16:34.891Z,2.17
2018-08-16T11:19:03.623Z,2.20
2018-08-16T11:21:32.127Z,1.90
2018-08-16T11:24:00.624Z,1.80
2018-08-16T11:26:29.179Z,1.70
2018-08-16T11:28:57.710Z,2.40
2018-08-16T11:31:26.419Z,2.03
2018-08-16T11:33:54.950Z,1.77
2018-08-16T11:36:23.412Z,2.37
2018-08-16T11:38:51.953Z,1.90
2018-08-16T11:41:20.504Z,1.73
2018-08-16T11:43:49.022Z,2.23
2018-08-16T11:46:18.748Z,2.30
2018-08-16T11:48:47.298Z,2.07
2018-08-16T11:51:15.815Z,1.50
2018-08-16T11:53:44.355Z,1.90
2018-08-16T11:56:13.065Z,1.73
2018-08-16T11:58:41.621Z,1.80
2018-08-16T12:01:10.250Z,1.30
2018-08-16T12:03:38.764Z,2.17
2018-08-16T12:06:07.332Z,1.70
2018-08-16T12:08:35.772Z,2.47
2018-08-16T12:11:04.357Z,2.07
2018-08-16T12:13:34.307Z,2.00
2018-08-16T12:16:02.767Z,1.80
2018-08-16T12:18:31.302Z,1.93
2018-08-16T12:21:01.109Z,1.70
2018-08-16T12:23:29.650Z,1.90
2018-08-16T12:25:58.204Z,2.10
2018-08-16T12:28:26.794Z,2.20
2018-08-16T12:30:55.341Z,1.80
2018-08-16T12:33:23.856Z,2.17
2018-08-16T12:35:52.466Z,1.90
2018-08-16T12:38:21.215Z,1.70
2018-08-16T12:40:50.200Z,1.77
2018-08-16T12:43:18.719Z,1.60
2018-08-16T12:45:47.141Z,2.00
2018-08-16T12:48:15.917Z,1.90
2018-08-16T12:50:44.656Z,1.37
2018-08-16T12:53:14.233Z,2.07
2018-08-16T12:55:42.814Z,2.10
2018-08-16T12:58:11.488Z,2.60
2018-08-16T13:00:40.226Z,1.60
2018-08-16T13:03:08.860Z,1.53
2018-08-16T13:05:37.699Z,2.10
2018-08-16T13:08:06.506Z,1.83
2018-08-16T13:10:35.116Z,2.67
2018-08-16T13:13:03.695Z,1.70
2018-08-16T13:15:32.579Z,1.73
2018-08-16T13:18:01.186Z,2.33
2018-08-16T13:20:29.715Z,1.77
2018-08-16T13:22:58.279Z,1.70
2018-08-16T13:25:26.781Z,1.87
2018-08-16T13:27:55.626Z,1.60
2018-08-16T13:30:24.185Z,2.13
2018-08-16T13:32:53.043Z,2.27
2018-08-16T13:35:21.735Z,1.70
2018-08-16T13:37:50.510Z,1.77
2018-08-16T13:40:19.147Z,1.90
2018-08-16T13:42:47.697Z,2.80
2018-08-16T13:45:16.381Z,1.77
2018-08-16T13:47:45.112Z,2.20
2018-08-16T13:50:13.609Z,1.80
2018-08-16T13:52:42.162Z,2.30
2018-08-16T13:55:10.809Z,2.33
2018-08-16T13:57:39.291Z,2.00
2018-08-16T14:00:08.515Z,1.73
2018-08-16T14:02:37.265Z,1.83
2018-08-16T14:05:05.900Z,1.90
2018-08-16T14:07:34.763Z,2.00
2018-08-16T14:10:05.073Z,1.90
2018-08-16T14:12:33.646Z,2.07
2018-08-16T14:15:02.112Z,2.53
2018-08-16T14:17:30.666Z,1.90
2018-08-16T14:19:59.249Z,2.27
2018-08-16T14:22:27.757Z,2.40
2018-08-16T14:24:59.710Z,1.80
2018-08-16T14:27:28.208Z,2.03
2018-08-16T14:29:56.751Z,2.37
2018-08-16T14:32:25.870Z,2.40
2018-08-16T14:34:54.438Z,2.10
2018-08-16T14:37:23.091Z,1.90
2018-08-16T14:39:51.587Z,1.97
2018-08-16T14:42:20.241Z,2.00
2018-08-16T14:44:48.721Z,1.90
2018-08-16T14:47:17.208Z,1.80
2018-08-16T14:49:45.857Z,2.10
2018-08-16T14:52:14.892Z,1.80
2018-08-16T14:54:43.385Z,1.50
2018-08-16T14:57:12.006Z,1.97
2018-08-16T14:59:41.631Z,2.00
2018-08-16T15:02:10.809Z,1.90
2018-08-16T15:04:39.323Z,1.97
2018-08-16T15:07:07.894Z,2.37
2018-08-16T15:09:36.379Z,2.30
2018-08-16T15:12:05.164Z,1.70
2018-08-16T15:14:34.780Z,2.20
2018-08-16T15:17:03.392Z,1.90
2018-08-16T15:19:31.894Z,2.00
2018-08-16T15:22:00.471Z,1.80
2018-08-16T15:24:29.103Z,2.23
2018-08-16T15:26:57.642Z,2.03
2018-08-16T15:29:26.427Z,2.03
2018-08-16T15:31:55.144Z,2.00
2018-08-16T15:34:23.681Z,2.10
2018-08-16T15:36:52.507Z,1.90
2018-08-16T15:39:21.033Z,1.97
2018-08-16T15:41:49.530Z,1.53
2018-08-16T15:44:18.097Z,1.60
2018-08-16T15:46:46.794Z,2.00
2018-08-16T15:49:15.360Z,1.73
2018-08-16T15:51:44.003Z,1.70
2018-08-16T15:54:12.542Z,1.83
2018-08-16T15:56:41.182Z,1.70
2018-08-16T15:59:09.688Z,2.10
2018-08-16T16:01:38.188Z,2.47
2018-08-16T16:04:06.897Z,1.90
2018-08-16T16:06:35.397Z,1.67
2018-08-16T16:09:05.776Z,1.90
2018-08-16T16:11:34.591Z,2.70
2018-08-16T16:14:04.001Z,2.63
2018-08-16T16:16:32.739Z,2.13
2018-08-16T16:19:01.318Z,1.83
2018-08-16T16:21:29.885Z,2.10
2018-08-16T16:23:58.502Z,2.20
2018-08-16T16:26:27.272Z,2.40
2018-08-16T16:28:55.840Z,2.37
2018-08-16T16:31:24.452Z,2.33
2018-08-16T16:33:52.972Z,2.13
2018-08-16T16:36:21.506Z,1.90
2018-08-16T16:38:50.120Z,1.80
2018-08-16T16:41:19.340Z,2.10
2018-08-16T16:43:47.982Z,1.70
2018-08-16T16:46:16.740Z,2.00
2018-08-16T16:48:45.397Z,2.67
2018-08-16T16:51:13.911Z,1.80
2018-08-16T16:53:42.402Z,1.60
2018-08-16T16:56:10.898Z,2.40
2018-08-16T16:58:39.612Z,2.27
2018-08-16T17:01:08.197Z,2.00
2018-08-16T17:03:36.741Z,2.20
2018-08-16T17:06:05.370Z,1.90
2018-08-16T17:08:33.957Z,2.30
2018-08-16T17:11:02.645Z,2.30
2018-08-16T17:13:31.146Z,1.80
2018-08-16T17:15:59.733Z,2.60
2018-08-16T17:18:28.354Z,1.87
2018-08-16T17:20:56.983Z,1.97
2018-08-16T17:23:25.505Z,2.17
2018-08-16T17:26:00.422Z,1.47
2018-08-16T17:28:28.938Z,1.70
2018-08-16T17:30:57.796Z,1.80
2018-08-16T17:33:26.283Z,2.37
2018-08-16T17:35:54.878Z,1.60
2018-08-16T17:38:23.339Z,2.27
2018-08-16T17:40:51.888Z,2.10
2018-08-16T17:43:20.394Z,2.80
2018-08-16T17:45:48.942Z,2.17
2018-08-16T17:48:17.471Z,1.83
2018-08-16T17:50:45.950Z,1.73
2018-08-16T17:53:14.527Z,2.00
2018-08-16T17:55:43.070Z,2.37
2018-08-16T17:58:11.586Z,2.40
2018-08-16T18:00:40.240Z,2.27
2018-08-16T18:03:08.831Z,2.20
2018-08-16T18:05:37.392Z,2.00
2018-08-16T18:08:06.016Z,2.47
2018-08-16T18:10:34.566Z,2.10
2018-08-16T18:13:03.084Z,2.30
2018-08-16T18:15:32.157Z,2.97
2018-08-16T18:18:01.160Z,2.67
2018-08-16T18:20:29.866Z,1.80
2018-08-16T18:22:58.416Z,2.40
2018-08-16T18:25:27.262Z,1.90
2018-08-16T18:27:55.959Z,2.37
2018-08-16T18:30:24.834Z,2.33
2018-08-16T18:32:53.470Z,2.23
2018-08-16T18:35:22.319Z,2.90
2018-08-16T18:37:50.877Z,2.80
2018-08-16T18:40:19.696Z,3.00
2018-08-16T18:42:48.224Z,2.40
2018-08-16T18:45:16.747Z,2.63
2018-08-16T18:47:45.259Z,3.53
2018-08-16T18:50:13.779Z,2.70
2018-08-16T18:52:42.471Z,3.57
2018-08-16T18:55:11.180Z,2.00
2018-08-16T18:57:40.079Z,2.20
2018-08-16T19:00:09.350Z,2.13
2018-08-16T19:02:38.053Z,2.70
2018-08-16T19:05:06.955Z,2.13
2018-08-16T19:07:35.565Z,2.40
2018-08-16T19:10:04.642Z,2.43
2018-08-16T19:12:33.190Z,2.40
2018-08-16T19:15:01.899Z,3.20
2018-08-16T19:17:30.455Z,3.20
2018-08-16T19:19:59.084Z,3.27
2018-08-16T19:22:27.597Z,2.30
2018-08-16T19:24:56.183Z,2.23
2018-08-16T19:27:24.836Z,2.50
2018-08-16T19:29:53.386Z,2.70
2018-08-16T19:32:21.982Z,2.53
2018-08-16T19:34:50.502Z,2.17
2018-08-16T19:37:19.075Z,2.63
2018-08-16T19:39:47.648Z,2.73
2018-08-16T19:42:16.231Z,2.70
2018-08-16T19:44:44.822Z,2.70
2018-08-16T19:47:14.319Z,3.23
2018-08-16T19:49:43.096Z,2.80
2018-08-16T19:52:11.700Z,2.77
2018-08-16T19:54:40.206Z,2.53
2018-08-16T19:57:08.807Z,2.50
2018-08-16T19:59:37.344Z,2.80
2018-08-16T20:02:05.946Z,2.57
2018-08-16T20:04:34.511Z,2.97
2018-08-16T20:07:03.166Z,2.57
2018-08-16T20:09:32.706Z,2.70
2018-08-16T20:12:01.290Z,2.27
2018-08-16T20:14:29.835Z,2.70
2018-08-16T20:16:58.442Z,3.27
2018-08-16T20:19:27.013Z,2.60
2018-08-16T20:21:55.551Z,3.00
2018-08-16T20:24:24.014Z,2.97
2018-08-16T20:26:52.708Z,3.30
2018-08-16T20:29:21.209Z,2.50
2018-08-16T20:31:49.817Z,3.10
2018-08-16T20:34:18.435Z,2.80
2018-08-16T20:36:47.005Z,2.70
2018-08-16T20:39:15.766Z,2.50
2018-08-16T20:41:44.560Z,3.27
2018-08-16T20:44:13.088Z,2.40
2018-08-16T20:46:41.663Z,4.33
2018-08-16T20:49:10.229Z,2.93
2018-08-16T20:51:39.470Z,2.67
2018-08-16T20:54:08.592Z,3.00
2018-08-16T20:56:37.089Z,3.40
2018-08-16T20:59:05.815Z,3.27
2018-08-16T21:01:34.543Z,2.97
2018-08-16T21:04:03.089Z,3.10
2018-08-16T21:06:31.663Z,2.60
2018-08-16T21:09:00.272Z,3.20
2018-08-16T21:11:28.760Z,2.50
2018-08-16T21:13:57.721Z,2.93
2018-08-16T21:16:26.359Z,3.00
2018-08-16T21:18:54.955Z,3.27
2018-08-16T21:21:23.610Z,2.63
2018-08-16T21:23:52.372Z,5.00
2018-08-16T21:26:27.586Z,2.30
2018-08-16T21:28:56.149Z,3.87
2018-08-16T21:31:24.968Z,2.77
2018-08-16T21:33:53.877Z,3.30
2018-08-16T21:36:22.414Z,2.43
2018-08-16T21:38:50.919Z,2.97
2018-08-16T21:41:19.406Z,3.40
2018-08-16T21:43:48.006Z,2.93
2018-08-16T21:46:16.549Z,2.90
2018-08-16T21:48:45.165Z,2.60
2018-08-16T21:51:13.798Z,2.73
2018-08-16T21:53:42.321Z,3.30
2018-08-16T21:56:11.054Z,3.00
2018-08-16T21:58:39.636Z,2.93
2018-08-16T22:01:08.683Z,3.10
2018-08-16T22:03:37.291Z,3.53
2018-08-16T22:06:10.931Z,2.97
2018-08-16T22:08:46.545Z,3.57
2018-08-16T22:11:15.318Z,4.27
2018-08-16T22:13:43.906Z,3.60
2018-08-16T22:16:12.630Z,2.87
2018-08-16T22:18:41.174Z,2.90
2018-08-16T22:21:10.174Z,3.07
2018-08-16T22:23:38.733Z,3.10
2018-08-16T22:26:07.330Z,2.90
2018-08-16T22:28:35.875Z,3.00
2018-08-16T22:31:04.459Z,2.40
2018-08-16T22:33:32.991Z,3.00
2018-08-16T22:36:01.442Z,2.93
2018-08-16T22:38:29.984Z,3.00
2018-08-16T22:40:58.527Z,3.20
2018-08-16T22:43:27.037Z,2.80
2018-08-16T22:45:55.538Z,3.37
2018-08-16T22:48:24.094Z,2.73
2018-08-16T22:50:52.663Z,3.57
2018-08-16T22:53:21.153Z,2.63
2018-08-16T22:55:49.719Z,2.60
2018-08-16T22:58:18.294Z,3.20
2018-08-16T23:00:46.849Z,2.80
2018-08-16T23:03:15.329Z,2.77
2018-08-16T23:05:43.815Z,3.03
2018-08-16T23:08:12.516Z,2.90
2018-08-16T23:10:41.150Z,3.30
2018-08-16T23:13:09.646Z,2.60
2018-08-16T23:15:38.195Z,3.33
2018-08-16T23:18:07.547Z,3.50
2018-08-16T23:20:36.534Z,2.67
2018-08-16T23:23:05.129Z,3.47
2018-08-16T23:25:33.688Z,3.33
2018-08-16T23:28:02.222Z,3.80
2018-08-16T23:30:30.715Z,2.53
2018-08-16T23:32:59.202Z,2.73
2018-08-16T23:35:27.689Z,3.10
2018-08-16T23:37:56.402Z,3.07
2018-08-16T23:40:24.885Z,3.63
2018-08-16T23:42:53.418Z,3.70
2018-08-16T23:45:22.011Z,2.70
2018-08-16T23:48:01.614Z,2.67
2018-08-16T23:50:36.667Z,2.83
2018-08-16T23:53:05.428Z,3.77
2018-08-16T23:55:34.053Z,2.90
2018-08-16T23:58:02.594Z,3.23
